sensor_id;sensor_type;location;lat;lon;timestamp;P1;durP1;ratioP1;P2;durP2;ratioP2
572;SDS011;271;51.114;13.780;2024-02-04T00:00:27;17.10;;;2.10;;
572;SDS011;271;51.114;13.780;2024-02-04T00:03:15;16.48;;;1.60;;
572;SDS011;271;51.114;13.780;2024-02-04T00:06:03;16.80;;;2.30;;
572;SDS011;271;51.114;13.780;2024-02-04T00:08:51;16.53;;;1.90;;
572;SDS011;271;51.114;13.780;2024-02-04T00:11:38;17.23;;;2.33;;
572;SDS011;271;51.114;13.780;2024-02-04T00:14:27;16.90;;;2.20;;
572;SDS011;271;51.114;13.780;2024-02-04T00:17:15;16.67;;;2.10;;
572;SDS011;271;51.114;13.780;2024-02-04T00:20:03;17.10;;;1.90;;
572;SDS011;271;51.114;13.780;2024-02-04T00:22:52;16.70;;;1.80;;
572;SDS011;271;51.114;13.780;2024-02-04T00:25:39;16.75;;;2.00;;
572;SDS011;271;51.114;13.780;2024-02-04T00:28:28;16.52;;;1.80;;
572;SDS011;271;51.114;13.780;2024-02-04T00:31:17;17.67;;;2.20;;
572;SDS011;271;51.114;13.780;2024-02-04T00:34:05;16.90;;;2.10;;
572;SDS011;271;51.114;13.780;2024-02-04T00:36:52;17.03;;;2.20;;
572;SDS011;271;51.114;13.780;2024-02-04T00:39:40;16.70;;;2.15;;
572;SDS011;271;51.114;13.780;2024-02-04T00:42:27;17.60;;;2.10;;
572;SDS011;271;51.114;13.780;2024-02-04T00:45:15;16.60;;;2.00;;
572;SDS011;271;51.114;13.780;2024-02-04T00:48:04;16.77;;;2.20;;
572;SDS011;271;51.114;13.780;2024-02-04T00:50:52;17.50;;;2.63;;
572;SDS011;271;51.114;13.780;2024-02-04T00:53:40;17.45;;;2.97;;
572;SDS011;271;51.114;13.780;2024-02-04T00:56:28;16.87;;;2.70;;
572;SDS011;271;51.114;13.780;2024-02-04T00:59:15;17.40;;;2.60;;
572;SDS011;271;51.114;13.780;2024-02-04T01:02:03;16.80;;;2.30;;
572;SDS011;271;51.114;13.780;2024-02-04T01:04:52;17.87;;;2.57;;
572;SDS011;271;51.114;13.780;2024-02-04T01:07:39;17.40;;;2.67;;
572;SDS011;271;51.114;13.780;2024-02-04T01:10:27;16.67;;;2.10;;
572;SDS011;271;51.114;13.780;2024-02-04T01:13:15;18.77;;;2.70;;
572;SDS011;271;51.114;13.780;2024-02-04T01:16:03;17.13;;;2.80;;
572;SDS011;271;51.114;13.780;2024-02-04T01:18:51;17.80;;;2.80;;
572;SDS011;271;51.114;13.780;2024-02-04T01:21:40;16.90;;;2.47;;
572;SDS011;271;51.114;13.780;2024-02-04T01:24:27;16.60;;;2.20;;
572;SDS011;271;51.114;13.780;2024-02-04T01:27:17;17.75;;;2.42;;
572;SDS011;271;51.114;13.780;2024-02-04T01:30:05;17.80;;;2.33;;
572;SDS011;271;51.114;13.780;2024-02-04T01:32:53;17.43;;;2.80;;
572;SDS011;271;51.114;13.780;2024-02-04T01:35:41;17.17;;;2.40;;
572;SDS011;271;51.114;13.780;2024-02-04T01:38:30;16.90;;;2.20;;
572;SDS011;271;51.114;13.780;2024-02-04T01:41:18;17.45;;;2.38;;
572;SDS011;271;51.114;13.780;2024-02-04T01:44:05;16.95;;;2.13;;
572;SDS011;271;51.114;13.780;2024-02-04T01:46:53;17.50;;;2.45;;
572;SDS011;271;51.114;13.780;2024-02-04T01:49:41;17.02;;;2.30;;
572;SDS011;271;51.114;13.780;2024-02-04T01:52:30;17.15;;;2.30;;
572;SDS011;271;51.114;13.780;2024-02-04T01:55:20;16.83;;;1.90;;
572;SDS011;271;51.114;13.780;2024-02-04T01:58:08;17.23;;;2.22;;
572;SDS011;271;51.114;13.780;2024-02-04T02:00:56;17.10;;;2.33;;
572;SDS011;271;51.114;13.780;2024-02-04T02:03:44;18.50;;;2.10;;
572;SDS011;271;51.114;13.780;2024-02-04T02:06:32;16.73;;;2.30;;
572;SDS011;271;51.114;13.780;2024-02-04T02:09:26;16.77;;;1.95;;
572;SDS011;271;51.114;13.780;2024-02-04T02:12:18;17.70;;;2.10;;
572;SDS011;271;51.114;13.780;2024-02-04T02:15:10;17.30;;;2.30;;
572;SDS011;271;51.114;13.780;2024-02-04T02:18:02;17.10;;;1.80;;
572;SDS011;271;51.114;13.780;2024-02-04T02:20:58;17.88;;;2.00;;
572;SDS011;271;51.114;13.780;2024-02-04T02:24:04;16.90;;;1.83;;
572;SDS011;271;51.114;13.780;2024-02-04T02:26:59;17.10;;;2.13;;
572;SDS011;271;51.114;13.780;2024-02-04T02:29:48;18.13;;;2.10;;
572;SDS011;271;51.114;13.780;2024-02-04T02:32:35;17.20;;;2.13;;
572;SDS011;271;51.114;13.780;2024-02-04T02:35:23;17.50;;;2.47;;
572;SDS011;271;51.114;13.780;2024-02-04T02:38:11;17.13;;;1.97;;
572;SDS011;271;51.114;13.780;2024-02-04T02:41:06;17.87;;;2.87;;
572;SDS011;271;51.114;13.780;2024-02-04T02:43:58;17.97;;;2.93;;
572;SDS011;271;51.114;13.780;2024-02-04T02:46:48;17.50;;;2.77;;
572;SDS011;271;51.114;13.780;2024-02-04T02:49:36;18.13;;;2.97;;
572;SDS011;271;51.114;13.780;2024-02-04T02:52:24;17.90;;;2.90;;
572;SDS011;271;51.114;13.780;2024-02-04T02:55:12;18.37;;;3.30;;
572;SDS011;271;51.114;13.780;2024-02-04T02:57:59;20.10;;;3.63;;
572;SDS011;271;51.114;13.780;2024-02-04T03:00:49;19.37;;;3.93;;
572;SDS011;271;51.114;13.780;2024-02-04T03:03:36;18.80;;;3.67;;
572;SDS011;271;51.114;13.780;2024-02-04T03:06:24;18.53;;;3.67;;
572;SDS011;271;51.114;13.780;2024-02-04T03:09:12;19.30;;;4.30;;
572;SDS011;271;51.114;13.780;2024-02-04T03:11:59;18.92;;;4.03;;
572;SDS011;271;51.114;13.780;2024-02-04T03:14:47;19.10;;;4.67;;
572;SDS011;271;51.114;13.780;2024-02-04T03:17:36;18.83;;;4.07;;
572;SDS011;271;51.114;13.780;2024-02-04T03:20:24;20.73;;;4.50;;
572;SDS011;271;51.114;13.780;2024-02-04T03:23:12;19.97;;;5.13;;
572;SDS011;271;51.114;13.780;2024-02-04T03:25:59;20.33;;;4.35;;
572;SDS011;271;51.114;13.780;2024-02-04T03:28:47;20.00;;;4.63;;
572;SDS011;271;51.114;13.780;2024-02-04T03:31:35;20.40;;;4.63;;
572;SDS011;271;51.114;13.780;2024-02-04T03:34:24;21.43;;;5.10;;
572;SDS011;271;51.114;13.780;2024-02-04T03:37:11;21.48;;;5.60;;
572;SDS011;271;51.114;13.780;2024-02-04T03:39:59;20.00;;;4.28;;
572;SDS011;271;51.114;13.780;2024-02-04T03:42:47;19.00;;;3.43;;
572;SDS011;271;51.114;13.780;2024-02-04T03:45:35;18.92;;;3.65;;
572;SDS011;271;51.114;13.780;2024-02-04T03:48:22;19.08;;;3.90;;
572;SDS011;271;51.114;13.780;2024-02-04T03:51:16;19.33;;;4.80;;
572;SDS011;271;51.114;13.780;2024-02-04T03:54:04;19.35;;;3.42;;
572;SDS011;271;51.114;13.780;2024-02-04T03:56:51;20.20;;;4.63;;
572;SDS011;271;51.114;13.780;2024-02-04T03:59:39;19.20;;;4.37;;
572;SDS011;271;51.114;13.780;2024-02-04T04:02:27;20.93;;;4.70;;
572;SDS011;271;51.114;13.780;2024-02-04T04:05:14;22.37;;;5.10;;
572;SDS011;271;51.114;13.780;2024-02-04T04:08:04;23.10;;;5.95;;
572;SDS011;271;51.114;13.780;2024-02-04T04:10:51;20.55;;;5.65;;
572;SDS011;271;51.114;13.780;2024-02-04T04:13:39;20.63;;;5.30;;
572;SDS011;271;51.114;13.780;2024-02-04T04:16:27;21.40;;;6.13;;
572;SDS011;271;51.114;13.780;2024-02-04T04:19:14;20.33;;;5.17;;
572;SDS011;271;51.114;13.780;2024-02-04T04:22:02;21.73;;;6.25;;
572;SDS011;271;51.114;13.780;2024-02-04T04:24:51;20.52;;;5.15;;
572;SDS011;271;51.114;13.780;2024-02-04T04:27:39;20.45;;;4.97;;
572;SDS011;271;51.114;13.780;2024-02-04T04:30:27;21.88;;;6.25;;
572;SDS011;271;51.114;13.780;2024-02-04T04:33:14;21.40;;;4.33;;
572;SDS011;271;51.114;13.780;2024-02-04T04:36:02;20.02;;;5.45;;
572;SDS011;271;51.114;13.780;2024-02-04T04:38:50;20.08;;;4.95;;
572;SDS011;271;51.114;13.780;2024-02-04T04:41:39;19.75;;;4.70;;
572;SDS011;271;51.114;13.780;2024-02-04T04:44:27;19.52;;;4.38;;
572;SDS011;271;51.114;13.780;2024-02-04T04:47:15;20.27;;;4.30;;
572;SDS011;271;51.114;13.780;2024-02-04T04:50:02;19.80;;;4.82;;
572;SDS011;271;51.114;13.780;2024-02-04T04:52:52;21.75;;;4.45;;
572;SDS011;271;51.114;13.780;2024-02-04T04:55:40;21.90;;;4.65;;
572;SDS011;271;51.114;13.780;2024-02-04T04:58:29;19.02;;;3.80;;
572;SDS011;271;51.114;13.780;2024-02-04T05:01:16;19.90;;;3.35;;
572;SDS011;271;51.114;13.780;2024-02-04T05:04:04;20.47;;;3.77;;
572;SDS011;271;51.114;13.780;2024-02-04T05:06:52;19.80;;;4.70;;
572;SDS011;271;51.114;13.780;2024-02-04T05:09:39;20.58;;;3.13;;
572;SDS011;271;51.114;13.780;2024-02-04T05:12:27;18.43;;;3.13;;
572;SDS011;271;51.114;13.780;2024-02-04T05:15:16;22.10;;;3.73;;
572;SDS011;271;51.114;13.780;2024-02-04T05:18:04;19.60;;;3.67;;
572;SDS011;271;51.114;13.780;2024-02-04T05:20:52;19.30;;;3.57;;
572;SDS011;271;51.114;13.780;2024-02-04T05:23:39;18.47;;;3.20;;
572;SDS011;271;51.114;13.780;2024-02-04T05:26:27;18.73;;;3.57;;
572;SDS011;271;51.114;13.780;2024-02-04T05:29:15;18.60;;;3.33;;
572;SDS011;271;51.114;13.780;2024-02-04T05:32:04;18.77;;;3.40;;
572;SDS011;271;51.114;13.780;2024-02-04T05:34:53;20.05;;;3.17;;
572;SDS011;271;51.114;13.780;2024-02-04T05:37:40;18.35;;;2.58;;
572;SDS011;271;51.114;13.780;2024-02-04T05:40:28;18.03;;;3.00;;
572;SDS011;271;51.114;13.780;2024-02-04T05:43:15;19.20;;;3.00;;
572;SDS011;271;51.114;13.780;2024-02-04T05:46:03;18.75;;;3.55;;
572;SDS011;271;51.114;13.780;2024-02-04T05:48:53;18.60;;;2.90;;
572;SDS011;271;51.114;13.780;2024-02-04T05:51:40;19.00;;;3.37;;
572;SDS011;271;51.114;13.780;2024-02-04T05:54:28;18.48;;;2.88;;
572;SDS011;271;51.114;13.780;2024-02-04T05:57:16;18.65;;;3.10;;
572;SDS011;271;51.114;13.780;2024-02-04T06:00:06;20.13;;;3.88;;
572;SDS011;271;51.114;13.780;2024-02-04T06:02:56;18.25;;;2.80;;
572;SDS011;271;51.114;13.780;2024-02-04T06:05:45;19.13;;;3.50;;
572;SDS011;271;51.114;13.780;2024-02-04T06:08:33;18.73;;;3.00;;
572;SDS011;271;51.114;13.780;2024-02-04T06:11:20;19.30;;;3.30;;
572;SDS011;271;51.114;13.780;2024-02-04T06:14:08;21.30;;;3.37;;
572;SDS011;271;51.114;13.780;2024-02-04T06:16:56;19.02;;;3.60;;
572;SDS011;271;51.114;13.780;2024-02-04T06:19:43;18.57;;;3.43;;
572;SDS011;271;51.114;13.780;2024-02-04T06:22:33;19.08;;;3.00;;
572;SDS011;271;51.114;13.780;2024-02-04T06:25:21;21.20;;;3.50;;
572;SDS011;271;51.114;13.780;2024-02-04T06:28:09;18.17;;;2.97;;
572;SDS011;271;51.114;13.780;2024-02-04T06:30:56;20.13;;;4.03;;
572;SDS011;271;51.114;13.780;2024-02-04T06:33:44;19.25;;;3.78;;
572;SDS011;271;51.114;13.780;2024-02-04T06:36:32;17.97;;;2.60;;
572;SDS011;271;51.114;13.780;2024-02-04T06:39:21;18.85;;;3.10;;
572;SDS011;271;51.114;13.780;2024-02-04T06:42:09;18.35;;;3.35;;
572;SDS011;271;51.114;13.780;2024-02-04T06:44:57;18.77;;;3.70;;
572;SDS011;271;51.114;13.780;2024-02-04T06:47:44;17.75;;;2.85;;
572;SDS011;271;51.114;13.780;2024-02-04T06:50:32;19.50;;;3.57;;
572;SDS011;271;51.114;13.780;2024-02-04T06:53:20;18.47;;;3.43;;
572;SDS011;271;51.114;13.780;2024-02-04T06:56:10;18.60;;;3.77;;
572;SDS011;271;51.114;13.780;2024-02-04T06:58:58;18.17;;;3.10;;
572;SDS011;271;51.114;13.780;2024-02-04T07:01:46;18.13;;;3.07;;
572;SDS011;271;51.114;13.780;2024-02-04T07:04:33;17.70;;;2.85;;
572;SDS011;271;51.114;13.780;2024-02-04T07:07:21;20.10;;;3.60;;
572;SDS011;271;51.114;13.780;2024-02-04T07:10:09;17.33;;;3.20;;
572;SDS011;271;51.114;13.780;2024-02-04T07:12:58;17.48;;;3.15;;
572;SDS011;271;51.114;13.780;2024-02-04T07:15:45;18.80;;;3.10;;
572;SDS011;271;51.114;13.780;2024-02-04T07:18:33;19.50;;;3.20;;
572;SDS011;271;51.114;13.780;2024-02-04T07:21:21;17.90;;;2.60;;
572;SDS011;271;51.114;13.780;2024-02-04T07:24:08;17.70;;;2.70;;
572;SDS011;271;51.114;13.780;2024-02-04T07:26:56;17.23;;;2.43;;
572;SDS011;271;51.114;13.780;2024-02-04T07:29:45;18.15;;;2.80;;
572;SDS011;271;51.114;13.780;2024-02-04T07:32:33;18.20;;;2.90;;
572;SDS011;271;51.114;13.780;2024-02-04T07:35:23;16.87;;;2.10;;
572;SDS011;271;51.114;13.780;2024-02-04T07:38:10;17.05;;;2.40;;
572;SDS011;271;51.114;13.780;2024-02-04T07:40:58;17.07;;;2.60;;
572;SDS011;271;51.114;13.780;2024-02-04T07:43:46;18.40;;;2.20;;
572;SDS011;271;51.114;13.780;2024-02-04T07:46:36;16.80;;;2.00;;
572;SDS011;271;51.114;13.780;2024-02-04T07:49:24;16.70;;;1.90;;
572;SDS011;271;51.114;13.780;2024-02-04T07:52:11;16.73;;;1.73;;
572;SDS011;271;51.114;13.780;2024-02-04T07:54:59;16.20;;;1.48;;
572;SDS011;271;51.114;13.780;2024-02-04T07:57:47;17.00;;;1.60;;
572;SDS011;271;51.114;13.780;2024-02-04T08:00:34;16.20;;;1.40;;
572;SDS011;271;51.114;13.780;2024-02-04T08:03:23;16.10;;;1.80;;
572;SDS011;271;51.114;13.780;2024-02-04T08:06:11;16.02;;;1.45;;
572;SDS011;271;51.114;13.780;2024-02-04T08:08:59;16.20;;;1.40;;
572;SDS011;271;51.114;13.780;2024-02-04T08:11:47;16.90;;;1.27;;
572;SDS011;271;51.114;13.780;2024-02-04T08:14:34;16.37;;;1.13;;
572;SDS011;271;51.114;13.780;2024-02-04T08:17:22;16.00;;;1.20;;
572;SDS011;271;51.114;13.780;2024-02-04T08:20:11;15.83;;;1.20;;
572;SDS011;271;51.114;13.780;2024-02-04T08:22:59;16.60;;;1.07;;
572;SDS011;271;51.114;13.780;2024-02-04T08:25:47;15.80;;;1.20;;
572;SDS011;271;51.114;13.780;2024-02-04T08:28:35;16.90;;;1.03;;
572;SDS011;271;51.114;13.780;2024-02-04T08:31:23;15.75;;;0.90;;
572;SDS011;271;51.114;13.780;2024-02-04T08:34:11;16.53;;;1.00;;
572;SDS011;271;51.114;13.780;2024-02-04T08:37:01;16.13;;;1.03;;
572;SDS011;271;51.114;13.780;2024-02-04T08:39:50;16.20;;;1.00;;
572;SDS011;271;51.114;13.780;2024-02-04T08:42:39;16.63;;;1.30;;
572;SDS011;271;51.114;13.780;2024-02-04T08:45:27;15.73;;;0.90;;
572;SDS011;271;51.114;13.780;2024-02-04T08:48:14;15.97;;;1.10;;
572;SDS011;271;51.114;13.780;2024-02-04T08:51:02;15.80;;;0.90;;
572;SDS011;271;51.114;13.780;2024-02-04T08:53:51;16.07;;;1.00;;
572;SDS011;271;51.114;13.780;2024-02-04T08:56:39;15.90;;;1.07;;
572;SDS011;271;51.114;13.780;2024-02-04T08:59:27;16.23;;;1.20;;
572;SDS011;271;51.114;13.780;2024-02-04T09:02:14;16.43;;;1.00;;
572;SDS011;271;51.114;13.780;2024-02-04T09:05:03;16.50;;;0.87;;
572;SDS011;271;51.114;13.780;2024-02-04T09:07:51;16.47;;;1.30;;
572;SDS011;271;51.114;13.780;2024-02-04T09:10:42;16.80;;;1.00;;
572;SDS011;271;51.114;13.780;2024-02-04T09:13:30;16.13;;;1.13;;
572;SDS011;271;51.114;13.780;2024-02-04T09:16:17;16.27;;;1.00;;
572;SDS011;271;51.114;13.780;2024-02-04T09:19:05;15.77;;;0.90;;
572;SDS011;271;51.114;13.780;2024-02-04T09:21:53;15.97;;;0.90;;
572;SDS011;271;51.114;13.780;2024-02-04T09:24:40;16.50;;;1.03;;
572;SDS011;271;51.114;13.780;2024-02-04T09:27:30;16.03;;;1.00;;
572;SDS011;271;51.114;13.780;2024-02-04T09:30:17;16.10;;;1.10;;
572;SDS011;271;51.114;13.780;2024-02-04T09:33:05;15.90;;;1.20;;
572;SDS011;271;51.114;13.780;2024-02-04T09:35:54;15.97;;;0.90;;
572;SDS011;271;51.114;13.780;2024-02-04T09:38:42;16.20;;;1.33;;
572;SDS011;271;51.114;13.780;2024-02-04T09:41:29;16.60;;;1.10;;
572;SDS011;271;51.114;13.780;2024-02-04T09:44:18;15.90;;;0.80;;
572;SDS011;271;51.114;13.780;2024-02-04T09:47:07;15.87;;;0.97;;
572;SDS011;271;51.114;13.780;2024-02-04T09:49:57;16.23;;;1.20;;
572;SDS011;271;51.114;13.780;2024-02-04T09:52:46;15.80;;;0.90;;
572;SDS011;271;51.114;13.780;2024-02-04T09:55:37;15.83;;;1.00;;
572;SDS011;271;51.114;13.780;2024-02-04T09:58:26;15.97;;;1.00;;
572;SDS011;271;51.114;13.780;2024-02-04T10:01:15;15.87;;;0.90;;
572;SDS011;271;51.114;13.780;2024-02-04T10:04:04;16.15;;;1.20;;
572;SDS011;271;51.114;13.780;2024-02-04T10:06:52;16.27;;;1.10;;
572;SDS011;271;51.114;13.780;2024-02-04T10:09:40;15.93;;;1.13;;
572;SDS011;271;51.114;13.780;2024-02-04T10:12:28;16.30;;;1.20;;
572;SDS011;271;51.114;13.780;2024-02-04T10:15:15;16.53;;;1.00;;
572;SDS011;271;51.114;13.780;2024-02-04T10:18:05;16.37;;;1.10;;
572;SDS011;271;51.114;13.780;2024-02-04T10:20:54;16.40;;;1.10;;
572;SDS011;271;51.114;13.780;2024-02-04T10:23:42;16.17;;;1.10;;
572;SDS011;271;51.114;13.780;2024-02-04T10:26:29;16.10;;;1.00;;
572;SDS011;271;51.114;13.780;2024-02-04T10:29:19;16.53;;;1.80;;
572;SDS011;271;51.114;13.780;2024-02-04T10:32:07;16.83;;;1.30;;
572;SDS011;271;51.114;13.780;2024-02-04T10:34:57;17.20;;;1.33;;
572;SDS011;271;51.114;13.780;2024-02-04T10:37:45;18.00;;;2.60;;
572;SDS011;271;51.114;13.780;2024-02-04T10:40:33;19.13;;;3.10;;
572;SDS011;271;51.114;13.780;2024-02-04T10:43:20;22.87;;;5.60;;
572;SDS011;271;51.114;13.780;2024-02-04T10:46:13;17.00;;;1.87;;
572;SDS011;271;51.114;13.780;2024-02-04T10:49:04;16.63;;;2.10;;
572;SDS011;271;51.114;13.780;2024-02-04T10:52:01;16.80;;;2.20;;
572;SDS011;271;51.114;13.780;2024-02-04T10:54:53;18.00;;;3.50;;
572;SDS011;271;51.114;13.780;2024-02-04T10:57:42;17.77;;;2.73;;
572;SDS011;271;51.114;13.780;2024-02-04T11:00:32;17.37;;;2.30;;
572;SDS011;271;51.114;13.780;2024-02-04T11:03:21;18.30;;;2.73;;
572;SDS011;271;51.114;13.780;2024-02-04T11:06:13;17.20;;;2.80;;
572;SDS011;271;51.114;13.780;2024-02-04T11:09:02;18.47;;;3.13;;
572;SDS011;271;51.114;13.780;2024-02-04T11:11:52;17.63;;;2.73;;
572;SDS011;271;51.114;13.780;2024-02-04T11:14:42;17.67;;;2.30;;
572;SDS011;271;51.114;13.780;2024-02-04T11:17:41;18.03;;;2.40;;
572;SDS011;271;51.114;13.780;2024-02-04T11:21:08;17.00;;;2.50;;
572;SDS011;271;51.114;13.780;2024-02-04T11:24:12;16.77;;;2.00;;
572;SDS011;271;51.114;13.780;2024-02-04T11:27:11;16.77;;;2.10;;
572;SDS011;271;51.114;13.780;2024-02-04T11:30:00;16.63;;;2.23;;
572;SDS011;271;51.114;13.780;2024-02-04T11:32:50;17.33;;;2.03;;
572;SDS011;271;51.114;13.780;2024-02-04T11:35:38;16.57;;;2.00;;
572;SDS011;271;51.114;13.780;2024-02-04T11:38:31;15.95;;;1.55;;
572;SDS011;271;51.114;13.780;2024-02-04T11:41:26;19.10;;;1.57;;
572;SDS011;271;51.114;13.780;2024-02-04T11:44:22;17.47;;;1.97;;
572;SDS011;271;51.114;13.780;2024-02-04T11:47:22;17.53;;;1.57;;
572;SDS011;271;51.114;13.780;2024-02-04T11:50:10;17.17;;;2.30;;
572;SDS011;271;51.114;13.780;2024-02-04T12:04:43;16.70;;;2.40;;
572;SDS011;271;51.114;13.780;2024-02-04T12:07:49;20.63;;;4.07;;
572;SDS011;271;51.114;13.780;2024-02-04T12:11:08;17.37;;;2.90;;
572;SDS011;271;51.114;13.780;2024-02-04T12:13:57;17.10;;;2.10;;
572;SDS011;271;51.114;13.780;2024-02-04T12:16:48;16.50;;;2.07;;
572;SDS011;271;51.114;13.780;2024-02-04T12:19:37;17.92;;;2.65;;
572;SDS011;271;51.114;13.780;2024-02-04T12:22:25;17.83;;;2.05;;
572;SDS011;271;51.114;13.780;2024-02-04T12:25:12;17.10;;;2.67;;
572;SDS011;271;51.114;13.780;2024-02-04T12:28:01;18.23;;;2.20;;
572;SDS011;271;51.114;13.780;2024-02-04T12:30:53;16.70;;;2.60;;
572;SDS011;271;51.114;13.780;2024-02-04T12:33:43;17.40;;;2.77;;
572;SDS011;271;51.114;13.780;2024-02-04T12:36:31;16.80;;;2.23;;
572;SDS011;271;51.114;13.780;2024-02-04T12:39:19;18.13;;;3.37;;
572;SDS011;271;51.114;13.780;2024-02-04T12:42:07;21.17;;;5.60;;
572;SDS011;271;51.114;13.780;2024-02-04T12:44:56;22.23;;;6.60;;
572;SDS011;271;51.114;13.780;2024-02-04T12:47:45;18.67;;;3.60;;
572;SDS011;271;51.114;13.780;2024-02-04T12:50:38;16.80;;;2.42;;
572;SDS011;271;51.114;13.780;2024-02-04T12:53:29;18.58;;;2.95;;
572;SDS011;271;51.114;13.780;2024-02-04T12:56:27;17.70;;;2.70;;
572;SDS011;271;51.114;13.780;2024-02-04T12:59:25;17.10;;;2.57;;
572;SDS011;271;51.114;13.780;2024-02-04T13:02:13;18.63;;;3.57;;
572;SDS011;271;51.114;13.780;2024-02-04T13:05:01;18.07;;;2.70;;
572;SDS011;271;51.114;13.780;2024-02-04T13:07:54;20.67;;;2.57;;
572;SDS011;271;51.114;13.780;2024-02-04T13:10:45;18.13;;;2.50;;
572;SDS011;271;51.114;13.780;2024-02-04T13:13:45;18.50;;;3.30;;
572;SDS011;271;51.114;13.780;2024-02-04T13:16:34;17.53;;;3.00;;
572;SDS011;271;51.114;13.780;2024-02-04T13:19:34;17.47;;;2.77;;
572;SDS011;271;51.114;13.780;2024-02-04T13:22:24;17.30;;;2.63;;
572;SDS011;271;51.114;13.780;2024-02-04T13:25:25;17.60;;;2.80;;
572;SDS011;271;51.114;13.780;2024-02-04T13:28:19;18.00;;;3.43;;
572;SDS011;271;51.114;13.780;2024-02-04T13:31:22;17.90;;;2.90;;
572;SDS011;271;51.114;13.780;2024-02-04T13:34:10;17.07;;;2.57;;
572;SDS011;271;51.114;13.780;2024-02-04T13:36:59;17.93;;;3.13;;
572;SDS011;271;51.114;13.780;2024-02-04T13:39:48;16.70;;;2.20;;
572;SDS011;271;51.114;13.780;2024-02-04T13:42:54;16.93;;;2.20;;
572;SDS011;271;51.114;13.780;2024-02-04T13:45:47;17.90;;;2.90;;
572;SDS011;271;51.114;13.780;2024-02-04T13:48:42;16.60;;;2.20;;
572;SDS011;271;51.114;13.780;2024-02-04T13:51:35;17.27;;;2.53;;
572;SDS011;271;51.114;13.780;2024-02-04T14:02:08;18.00;;;2.87;;
572;SDS011;271;51.114;13.780;2024-02-04T14:05:02;21.10;;;4.30;;
572;SDS011;271;51.114;13.780;2024-02-04T14:07:57;17.53;;;3.00;;
572;SDS011;271;51.114;13.780;2024-02-04T14:11:09;18.03;;;2.60;;
572;SDS011;271;51.114;13.780;2024-02-04T14:18:34;17.40;;;2.33;;
572;SDS011;271;51.114;13.780;2024-02-04T14:21:37;17.80;;;2.90;;
572;SDS011;271;51.114;13.780;2024-02-04T14:24:25;19.13;;;2.60;;
572;SDS011;271;51.114;13.780;2024-02-04T14:27:13;17.15;;;2.53;;
572;SDS011;271;51.114;13.780;2024-02-04T14:30:00;17.23;;;2.63;;
572;SDS011;271;51.114;13.780;2024-02-04T14:32:50;17.30;;;2.43;;
572;SDS011;271;51.114;13.780;2024-02-04T14:35:38;17.87;;;2.50;;
572;SDS011;271;51.114;13.780;2024-02-04T14:38:25;17.83;;;2.30;;
572;SDS011;271;51.114;13.780;2024-02-04T14:41:13;16.97;;;2.20;;
572;SDS011;271;51.114;13.780;2024-02-04T14:44:01;17.77;;;2.30;;
572;SDS011;271;51.114;13.780;2024-02-04T14:46:49;17.80;;;2.33;;
572;SDS011;271;51.114;13.780;2024-02-04T14:49:38;17.73;;;2.42;;
572;SDS011;271;51.114;13.780;2024-02-04T14:52:25;18.60;;;2.40;;
572;SDS011;271;51.114;13.780;2024-02-04T14:55:13;18.80;;;3.83;;
572;SDS011;271;51.114;13.780;2024-02-04T14:58:01;17.43;;;2.40;;
572;SDS011;271;51.114;13.780;2024-02-04T15:00:49;16.90;;;2.33;;
572;SDS011;271;51.114;13.780;2024-02-04T15:03:36;17.73;;;2.40;;
572;SDS011;271;51.114;13.780;2024-02-04T15:06:25;16.70;;;1.83;;
572;SDS011;271;51.114;13.780;2024-02-04T15:09:15;16.83;;;2.30;;
572;SDS011;271;51.114;13.780;2024-02-04T15:12:03;17.65;;;2.42;;
572;SDS011;271;51.114;13.780;2024-02-04T15:14:52;17.70;;;2.13;;
572;SDS011;271;51.114;13.780;2024-02-04T15:17:40;16.30;;;2.00;;
572;SDS011;271;51.114;13.780;2024-02-04T15:20:28;16.53;;;2.00;;
572;SDS011;271;51.114;13.780;2024-02-04T15:23:18;16.23;;;1.80;;
572;SDS011;271;51.114;13.780;2024-02-04T15:26:06;16.40;;;2.20;;
572;SDS011;271;51.114;13.780;2024-02-04T15:28:58;17.70;;;2.67;;
572;SDS011;271;51.114;13.780;2024-02-04T15:31:48;16.80;;;1.50;;
572;SDS011;271;51.114;13.780;2024-02-04T15:34:37;16.43;;;1.83;;
572;SDS011;271;51.114;13.780;2024-02-04T15:37:24;16.47;;;1.80;;
572;SDS011;271;51.114;13.780;2024-02-04T15:40:14;16.80;;;1.73;;
572;SDS011;271;51.114;13.780;2024-02-04T15:43:01;16.37;;;1.70;;
572;SDS011;271;51.114;13.780;2024-02-04T15:45:50;17.50;;;1.80;;
572;SDS011;271;51.114;13.780;2024-02-04T15:48:39;16.90;;;2.20;;
572;SDS011;271;51.114;13.780;2024-02-04T15:51:30;17.83;;;1.60;;
572;SDS011;271;51.114;13.780;2024-02-04T15:54:19;17.20;;;2.45;;
572;SDS011;271;51.114;13.780;2024-02-04T15:57:09;21.00;;;2.80;;
572;SDS011;271;51.114;13.780;2024-02-04T15:59:57;18.87;;;2.63;;
572;SDS011;271;51.114;13.780;2024-02-04T16:02:57;17.57;;;2.50;;
572;SDS011;271;51.114;13.780;2024-02-04T16:05:45;17.10;;;2.00;;
572;SDS011;271;51.114;13.780;2024-02-04T16:08:33;23.47;;;6.30;;
572;SDS011;271;51.114;13.780;2024-02-04T16:11:24;20.50;;;4.77;;
572;SDS011;271;51.114;13.780;2024-02-04T16:17:37;18.43;;;3.33;;
572;SDS011;271;51.114;13.780;2024-02-04T16:20:28;17.92;;;2.63;;
572;SDS011;271;51.114;13.780;2024-02-04T16:24:13;18.20;;;3.00;;
572;SDS011;271;51.114;13.780;2024-02-04T16:27:23;17.60;;;2.10;;
572;SDS011;271;51.114;13.780;2024-02-04T16:30:24;18.48;;;2.42;;
572;SDS011;271;51.114;13.780;2024-02-04T16:33:24;16.60;;;1.70;;
572;SDS011;271;51.114;13.780;2024-02-04T16:36:12;17.10;;;1.83;;
572;SDS011;271;51.114;13.780;2024-02-04T16:38:59;17.20;;;2.53;;
572;SDS011;271;51.114;13.780;2024-02-04T16:41:51;16.87;;;2.03;;
572;SDS011;271;51.114;13.780;2024-02-04T16:44:38;17.00;;;2.30;;
572;SDS011;271;51.114;13.780;2024-02-04T16:47:27;20.20;;;2.73;;
572;SDS011;271;51.114;13.780;2024-02-04T16:50:15;18.30;;;2.83;;
572;SDS011;271;51.114;13.780;2024-02-04T16:53:04;17.60;;;2.70;;
572;SDS011;271;51.114;13.780;2024-02-04T16:55:52;19.00;;;3.53;;
572;SDS011;271;51.114;13.780;2024-02-04T16:58:42;16.80;;;2.23;;
572;SDS011;271;51.114;13.780;2024-02-04T17:01:30;18.83;;;3.00;;
572;SDS011;271;51.114;13.780;2024-02-04T17:04:21;19.33;;;3.37;;
572;SDS011;271;51.114;13.780;2024-02-04T17:07:12;22.83;;;4.07;;
572;SDS011;271;51.114;13.780;2024-02-04T17:10:10;18.03;;;2.80;;
572;SDS011;271;51.114;13.780;2024-02-04T17:13:21;17.03;;;2.70;;
572;SDS011;271;51.114;13.780;2024-02-04T17:16:13;17.10;;;2.65;;
572;SDS011;271;51.114;13.780;2024-02-04T17:19:19;18.73;;;3.42;;
572;SDS011;271;51.114;13.780;2024-02-04T17:22:35;18.88;;;3.88;;
572;SDS011;271;51.114;13.780;2024-02-04T17:25:44;18.15;;;3.30;;
572;SDS011;271;51.114;13.780;2024-02-04T17:28:35;19.10;;;3.88;;
572;SDS011;271;51.114;13.780;2024-02-04T17:31:27;18.45;;;3.38;;
572;SDS011;271;51.114;13.780;2024-02-04T17:34:19;21.77;;;3.57;;
572;SDS011;271;51.114;13.780;2024-02-04T17:37:15;18.60;;;3.03;;
572;SDS011;271;51.114;13.780;2024-02-04T17:43:51;18.95;;;3.45;;
572;SDS011;271;51.114;13.780;2024-02-04T17:50:20;19.05;;;4.13;;
572;SDS011;271;51.114;13.780;2024-02-04T17:56:37;20.38;;;4.45;;
572;SDS011;271;51.114;13.780;2024-02-04T17:59:25;19.90;;;4.70;;
572;SDS011;271;51.114;13.780;2024-02-04T18:02:16;20.00;;;4.60;;
572;SDS011;271;51.114;13.780;2024-02-04T18:05:06;19.60;;;3.97;;
572;SDS011;271;51.114;13.780;2024-02-04T18:07:55;19.85;;;4.88;;
572;SDS011;271;51.114;13.780;2024-02-04T18:10:42;19.27;;;4.25;;
572;SDS011;271;51.114;13.780;2024-02-04T18:13:31;19.63;;;3.97;;